KBIE/BIE METAR and TAF weather

Enter ICAO airport designator
Station Type Date Time Source
KBIE METAR 2020/07/13 13:15 UTC NOAA

KBIE 131315Z AUTO 16008KT 10SM CLR 23/19 A2991 RMK AO2 T02250185


Station Type Date Time Source
KBIE Decoded METAR 2020/07/13 13:15 UTC NOAA

Beatrice Municipal, NE, United States (KBIE) 40-18N 096-45W
Jul 13, 2020 - 09:15 AM EDT / 2020.07.13 1315 UTC
Wind: from the SSE (160 degrees) at 9 MPH (8 KT):0
Visibility: 10 mile(s):0
Sky conditions: clear
Temperature: 72.5 F (22.5 C)
Dew Point: 65.3 F (18.5 C)
Relative Humidity: 78%
Pressure (altimeter): 29.91 in. Hg (1012 hPa)
ob: KBIE 131315Z AUTO 16008KT 10SM CLR 23/19 A2991 RMK AO2 T02250185
cycle: 13

Station Type Date Time Source
KBIE TAF UTC NOAA

Error!

Example: see airport list